createdAt,value
2023-03-06T00:01:49.830Z,3.34
2023-03-06T00:04:53.513Z,3.24
2023-03-06T00:07:56.406Z,3.19
2023-03-06T00:10:59.634Z,3.18
2023-03-06T00:14:02.450Z,3.12
2023-03-06T00:17:05.333Z,2.91
2023-03-06T00:20:08.802Z,2.70
2023-03-06T00:23:12.706Z,2.61
2023-03-06T00:26:15.622Z,2.46
2023-03-06T00:29:18.710Z,2.45
2023-03-06T00:32:21.785Z,2.30
2023-03-06T00:35:24.638Z,2.19
2023-03-06T00:38:28.757Z,2.02
2023-03-06T00:41:32.383Z,1.90
2023-03-06T00:44:35.204Z,1.74
2023-03-06T00:47:38.073Z,1.65
2023-03-06T00:50:40.854Z,1.58
2023-03-06T00:53:43.702Z,1.53
2023-03-06T00:56:46.564Z,1.49
2023-03-06T00:59:49.371Z,1.41
2023-03-06T01:02:53.828Z,1.34
2023-03-06T01:05:58.405Z,1.09
2023-03-06T01:09:06.625Z,1.01
2023-03-06T01:12:09.804Z,1.13
2023-03-06T01:15:13.359Z,1.10
2023-03-06T01:18:16.154Z,1.05
2023-03-06T01:21:19.176Z,0.97
2023-03-06T01:24:24.084Z,1.01
2023-03-06T01:27:26.952Z,0.97
2023-03-06T01:30:29.826Z,0.97
2023-03-06T01:33:33.813Z,0.97
2023-03-06T01:36:36.969Z,0.86
2023-03-06T01:39:39.744Z,0.81
2023-03-06T01:42:43.257Z,0.80
2023-03-06T01:45:46.094Z,0.68
2023-03-06T01:48:52.629Z,0.66
2023-03-06T01:52:02.029Z,0.61
2023-03-06T01:55:23.075Z,0.56
2023-03-06T01:58:25.963Z,0.77
2023-03-06T02:01:31.315Z,0.97
2023-03-06T02:04:35.250Z,0.86
2023-03-06T02:07:38.645Z,0.86
2023-03-06T02:10:58.793Z,0.92
2023-03-06T02:14:01.705Z,0.99
2023-03-06T02:17:04.675Z,1.06
2023-03-06T02:20:12.357Z,0.93
2023-03-06T02:23:21.094Z,0.88
2023-03-06T02:26:26.591Z,0.86
2023-03-06T02:29:31.853Z,0.80
2023-03-06T02:32:38.242Z,0.84
2023-03-06T02:35:54.306Z,0.83
2023-03-06T02:38:58.017Z,0.88
2023-03-06T02:42:01.332Z,0.86
2023-03-06T02:45:10.973Z,0.76
2023-03-06T02:48:15.407Z,0.72
2023-03-06T02:51:18.659Z,0.67
2023-03-06T02:54:21.345Z,0.77
2023-03-06T02:57:24.180Z,0.86
2023-03-06T03:00:28.080Z,0.92
2023-03-06T03:03:30.968Z,1.00
2023-03-06T03:06:34.331Z,1.03
2023-03-06T03:09:38.154Z,1.02
2023-03-06T03:12:41.600Z,1.10
2023-03-06T03:15:44.607Z,1.14
2023-03-06T03:18:51.503Z,1.18
2023-03-06T03:21:57.773Z,1.18
2023-03-06T03:25:00.681Z,1.13
2023-03-06T03:28:03.643Z,1.12
2023-03-06T03:31:08.650Z,1.03
2023-03-06T03:34:12.026Z,0.84
2023-03-06T03:37:16.790Z,0.76
2023-03-06T03:40:19.696Z,0.81
2023-03-06T03:43:26.256Z,1.04
2023-03-06T03:46:29.258Z,1.04
2023-03-06T03:49:33.041Z,1.04
2023-03-06T03:52:37.457Z,0.94
2023-03-06T03:55:40.578Z,0.75
2023-03-06T03:58:43.436Z,0.65
2023-03-06T04:01:46.359Z,0.48
2023-03-06T04:04:50.167Z,0.65
2023-03-06T04:07:53.282Z,0.72
2023-03-06T04:10:56.917Z,0.77
2023-03-06T04:14:00.523Z,0.97
2023-03-06T04:17:03.578Z,1.09
2023-03-06T04:20:06.904Z,1.15
2023-03-06T04:23:10.867Z,1.25
2023-03-06T04:26:13.958Z,1.33
2023-03-06T04:29:17.270Z,1.47
2023-03-06T04:32:21.509Z,1.63
2023-03-06T04:35:24.955Z,1.75
2023-03-06T04:38:34.046Z,1.82
2023-03-06T04:41:40.524Z,1.84
2023-03-06T04:44:44.115Z,1.86
2023-03-06T04:47:47.133Z,1.89
2023-03-06T04:50:49.887Z,1.91
2023-03-06T04:53:52.731Z,1.95
2023-03-06T04:56:55.538Z,1.98
2023-03-06T04:59:58.305Z,2.03
2023-03-06T05:03:02.367Z,2.07
2023-03-06T05:06:05.645Z,2.01
2023-03-06T05:09:08.372Z,2.00
2023-03-06T05:12:11.120Z,1.99
2023-03-06T05:15:14.370Z,1.92
2023-03-06T05:18:17.789Z,1.89
2023-03-06T05:21:20.599Z,1.87
2023-03-06T05:24:23.755Z,1.85
2023-03-06T05:27:27.656Z,1.90
2023-03-06T05:30:30.509Z,1.90
2023-03-06T05:33:35.192Z,1.91
2023-03-06T05:36:37.978Z,1.99
2023-03-06T05:39:40.760Z,2.11
2023-03-06T05:42:43.705Z,2.14
2023-03-06T05:45:46.635Z,2.15
2023-03-06T05:48:49.577Z,2.16
2023-03-06T05:51:52.814Z,2.14
2023-03-06T05:54:55.715Z,2.27
2023-03-06T05:57:58.632Z,2.34
2023-03-06T06:01:09.548Z,2.46
2023-03-06T06:04:15.322Z,2.59
2023-03-06T06:07:18.352Z,2.67
2023-03-06T06:10:21.517Z,2.69
2023-03-06T06:13:24.464Z,3.03
2023-03-06T06:16:27.344Z,3.00
2023-03-06T06:19:31.120Z,3.04
2023-03-06T06:22:37.634Z,2.94
2023-03-06T06:25:40.581Z,2.86
2023-03-06T06:28:43.403Z,2.92
2023-03-06T06:31:46.864Z,2.87
2023-03-06T06:34:49.588Z,2.90
2023-03-06T06:37:52.540Z,3.52
2023-03-06T06:41:30.624Z,4.04
2023-03-06T06:44:19.411Z,4.46
2023-03-06T06:47:24.643Z,4.49
2023-03-06T06:50:27.893Z,4.78
2023-03-06T06:53:30.876Z,4.94
2023-03-06T06:56:33.866Z,4.99
2023-03-06T06:59:36.823Z,5.10
2023-03-06T07:02:39.592Z,5.00
2023-03-06T07:05:42.686Z,5.52
2023-03-06T07:08:45.652Z,5.37
2023-03-06T07:11:50.502Z,5.12
2023-03-06T07:14:54.283Z,4.97
2023-03-06T07:17:57.601Z,5.02
2023-03-06T07:21:01.388Z,5.19
2023-03-06T07:24:04.878Z,5.59
2023-03-06T07:27:08.782Z,8.18
2023-03-06T07:30:13.860Z,9.40
2023-03-06T07:33:17.348Z,11.06
2023-03-06T07:36:21.737Z,9.16
2023-03-06T07:39:24.542Z,8.71
2023-03-06T07:42:29.444Z,8.09
2023-03-06T07:45:37.136Z,7.17
2023-03-06T07:48:40.761Z,6.82
2023-03-06T07:51:43.989Z,6.69
2023-03-06T07:54:48.395Z,6.68
2023-03-06T07:57:51.751Z,6.93
2023-03-06T08:00:55.055Z,6.76
2023-03-06T08:03:59.461Z,6.85
2023-03-06T08:07:03.627Z,6.66
2023-03-06T08:10:07.178Z,6.80
2023-03-06T08:13:10.382Z,6.94
2023-03-06T08:16:18.533Z,7.04
2023-03-06T08:19:21.576Z,6.69
2023-03-06T08:22:24.410Z,7.14
2023-03-06T08:25:27.238Z,7.75
2023-03-06T08:28:30.163Z,7.89
2023-03-06T08:31:42.419Z,8.06
2023-03-06T08:34:45.817Z,8.43
2023-03-06T08:37:48.687Z,8.55
2023-03-06T08:40:51.464Z,9.06
2023-03-06T08:43:54.415Z,9.73
2023-03-06T08:46:57.253Z,9.38
2023-03-06T08:50:00.804Z,10.37
2023-03-06T08:53:42.173Z,10.95
2023-03-06T08:56:56.184Z,10.96
2023-03-06T08:59:59.638Z,9.55
2023-03-06T09:03:02.739Z,11.13
2023-03-06T09:06:06.251Z,11.38
2023-03-06T09:09:09.454Z,11.58
2023-03-06T09:12:12.452Z,11.83
2023-03-06T09:15:16.093Z,12.62
2023-03-06T09:18:24.803Z,13.18
2023-03-06T09:21:30.816Z,14.18
2023-03-06T09:24:34.169Z,15.20
2023-03-06T09:27:37.064Z,16.18
2023-03-06T09:30:41.216Z,17.42
2023-03-06T09:33:44.878Z,16.66
2023-03-06T09:36:56.891Z,16.90
2023-03-06T09:40:00.567Z,17.35
2023-03-06T09:43:03.378Z,17.07
2023-03-06T09:46:43.697Z,18.39
2023-03-06T09:49:52.979Z,15.47
2023-03-06T09:53:17.216Z,14.85
2023-03-06T09:56:31.798Z,14.17
2023-03-06T09:59:36.353Z,14.49
2023-03-06T10:02:45.483Z,14.25
2023-03-06T10:05:56.975Z,15.28
2023-03-06T10:09:12.618Z,17.20
2023-03-06T10:12:32.782Z,18.32
2023-03-06T10:15:39.576Z,18.36
2023-03-06T10:18:42.575Z,19.63
2023-03-06T10:21:59.272Z,19.85
2023-03-06T10:25:28.195Z,19.24
2023-03-06T10:28:42.930Z,20.97
2023-03-06T10:32:01.935Z,20.64
2023-03-06T10:35:15.794Z,21.45
2023-03-06T10:38:21.847Z,21.09
2023-03-06T10:41:30.621Z,21.17
2023-03-06T10:44:33.360Z,21.05
2023-03-06T10:47:37.779Z,20.17
2023-03-06T10:50:43.681Z,17.36
2023-03-06T10:54:11.283Z,18.32
2023-03-06T10:57:32.518Z,17.65
2023-03-06T11:00:38.763Z,18.88
2023-03-06T11:03:45.615Z,17.18
2023-03-06T11:07:07.025Z,16.38
2023-03-06T11:10:23.449Z,15.63
2023-03-06T11:13:29.613Z,15.77
2023-03-06T11:16:32.564Z,14.56
2023-03-06T11:19:35.517Z,14.51
2023-03-06T11:22:40.090Z,14.21
2023-03-06T11:25:58.369Z,15.64
2023-03-06T11:29:04.338Z,16.39
2023-03-06T11:32:18.757Z,15.17
2023-03-06T11:35:27.756Z,14.55
2023-03-06T11:38:40.514Z,14.45
2023-03-06T11:42:07.021Z,15.66
2023-03-06T11:45:34.962Z,13.98
2023-03-06T11:48:44.220Z,13.66
2023-03-06T11:52:03.186Z,13.52
2023-03-06T11:55:12.813Z,13.59
2023-03-06T11:58:40.512Z,12.79
2023-03-06T12:02:53.991Z,11.66
2023-03-06T12:06:37.020Z,11.14
2023-03-06T12:10:02.235Z,10.71
2023-03-06T12:13:16.409Z,10.41
2023-03-06T12:16:52.929Z,10.11
2023-03-06T12:20:20.671Z,10.04
2023-03-06T12:23:35.461Z,10.53
2023-03-06T12:26:56.988Z,11.35
2023-03-06T12:30:38.165Z,12.56
2023-03-06T12:34:05.890Z,12.62
2023-03-06T12:37:29.877Z,14.90
2023-03-06T12:40:38.808Z,14.44
2023-03-06T12:44:00.824Z,15.81
2023-03-06T12:47:08.890Z,16.81
2023-03-06T12:50:25.442Z,18.41
2023-03-06T12:53:31.015Z,17.36
2023-03-06T12:56:35.630Z,15.72
2023-03-06T12:59:48.572Z,15.74
2023-03-06T13:03:06.715Z,16.98
2023-03-06T13:06:32.447Z,16.53
2023-03-06T13:09:59.956Z,17.34
2023-03-06T13:13:57.732Z,15.89
2023-03-06T13:17:31.714Z,14.09
2023-03-06T13:20:40.113Z,13.88
2023-03-06T13:23:52.152Z,14.13
2023-03-06T13:27:01.403Z,14.37
2023-03-06T13:30:19.891Z,14.84
2023-03-06T13:33:30.245Z,14.89
2023-03-06T13:36:39.639Z,15.26
2023-03-06T13:40:05.996Z,15.76
2023-03-06T13:43:08.836Z,15.85
2023-03-06T13:46:38.392Z,15.10
2023-03-06T13:49:46.599Z,14.67
2023-03-06T13:52:57.819Z,13.99
2023-03-06T13:56:16.114Z,13.38
2023-03-06T13:59:41.786Z,12.66
2023-03-06T14:03:15.519Z,12.44
2023-03-06T14:06:37.480Z,12.41
2023-03-06T14:09:45.921Z,12.34
2023-03-06T14:12:51.821Z,12.39
2023-03-06T14:15:55.865Z,12.29
2023-03-06T14:19:00.889Z,12.24
2023-03-06T14:22:06.111Z,12.58
2023-03-06T14:25:35.218Z,12.72
2023-03-06T14:28:38.142Z,12.59
2023-03-06T14:31:43.064Z,12.31
2023-03-06T14:34:47.131Z,11.98
2023-03-06T14:37:53.385Z,11.51
2023-03-06T14:40:56.565Z,11.49
2023-03-06T14:44:16.919Z,11.71
2023-03-06T14:47:27.503Z,11.22
2023-03-06T14:50:34.170Z,11.32
2023-03-06T14:53:37.174Z,11.19
2023-03-06T14:56:46.115Z,11.17
2023-03-06T14:59:58.208Z,11.06
2023-03-06T15:03:02.114Z,11.05
2023-03-06T15:06:06.398Z,10.96
2023-03-06T15:09:20.507Z,10.96
2023-03-06T15:12:23.633Z,10.95
2023-03-06T15:15:30.027Z,10.87
2023-03-06T15:18:36.402Z,10.86
2023-03-06T15:21:39.350Z,10.82
2023-03-06T15:24:42.246Z,10.75
2023-03-06T15:28:22.769Z,10.83
2023-03-06T15:31:31.059Z,10.70
2023-03-06T15:34:33.900Z,10.72
2023-03-06T15:37:36.700Z,10.72
2023-03-06T15:40:39.524Z,10.62
2023-03-06T15:43:42.286Z,10.49
2023-03-06T15:46:45.117Z,10.44
2023-03-06T15:49:52.116Z,10.15
2023-03-06T15:52:55.382Z,10.36
2023-03-06T15:55:59.469Z,10.25
2023-03-06T15:59:02.922Z,10.00
2023-03-06T16:02:14.960Z,10.04
2023-03-06T16:05:18.588Z,9.95
2023-03-06T16:08:21.584Z,9.96
2023-03-06T16:11:35.327Z,9.76
2023-03-06T16:14:47.558Z,9.69
2023-03-06T16:17:50.362Z,9.59
2023-03-06T16:20:53.180Z,9.58
2023-03-06T16:23:56.290Z,9.53
2023-03-06T16:27:01.742Z,9.33
2023-03-06T16:30:05.567Z,9.31
2023-03-06T16:33:12.972Z,9.22
2023-03-06T16:36:27.149Z,9.05
2023-03-06T16:39:30.200Z,8.99
2023-03-06T16:42:34.337Z,8.83
2023-03-06T16:45:39.342Z,8.91
2023-03-06T16:48:42.526Z,8.83
2023-03-06T16:51:45.538Z,8.82
2023-03-06T16:54:48.330Z,8.82
2023-03-06T16:57:51.276Z,8.78
2023-03-06T17:00:54.798Z,8.76
2023-03-06T17:03:59.005Z,8.72
2023-03-06T17:07:01.993Z,8.73
2023-03-06T17:10:07.107Z,8.64
2023-03-06T17:13:10.988Z,8.61
2023-03-06T17:16:16.567Z,8.60
2023-03-06T17:19:19.565Z,8.44
2023-03-06T17:22:22.566Z,8.38
2023-03-06T17:25:25.290Z,8.35
2023-03-06T17:28:28.031Z,8.30
2023-03-06T17:31:31.161Z,8.24
2023-03-06T17:34:34.542Z,8.21
2023-03-06T17:37:37.651Z,8.29
2023-03-06T17:40:41.801Z,8.28
2023-03-06T17:43:44.619Z,8.32
2023-03-06T17:46:47.565Z,8.19
2023-03-06T17:49:50.571Z,8.23
2023-03-06T17:52:56.664Z,8.30
2023-03-06T17:55:59.605Z,8.33
2023-03-06T17:59:02.549Z,8.36
2023-03-06T18:02:06.746Z,8.42
2023-03-06T18:05:10.040Z,8.47
2023-03-06T18:08:13.222Z,8.54
2023-03-06T18:11:17.699Z,8.16
2023-03-06T18:14:20.985Z,7.98
2023-03-06T18:17:24.125Z,7.77
2023-03-06T18:20:26.966Z,7.64
2023-03-06T18:23:30.044Z,7.53
2023-03-06T18:26:33.167Z,7.42
2023-03-06T18:29:36.178Z,7.38
2023-03-06T18:32:39.209Z,7.37
2023-03-06T18:35:44.288Z,7.35
2023-03-06T18:38:48.129Z,7.33
2023-03-06T18:41:51.925Z,7.34
2023-03-06T18:44:54.950Z,7.35
2023-03-06T18:47:57.838Z,7.34
2023-03-06T18:51:06.195Z,7.28
2023-03-06T18:54:11.730Z,7.27
2023-03-06T18:57:14.791Z,7.29
2023-03-06T19:00:18.434Z,7.21
2023-03-06T19:03:21.683Z,7.10
2023-03-06T19:06:26.983Z,7.04
2023-03-06T19:09:30.683Z,6.95
2023-03-06T19:12:35.544Z,6.84
2023-03-06T19:15:46.299Z,6.82
2023-03-06T19:18:49.753Z,6.81
2023-03-06T19:21:53.992Z,6.66
2023-03-06T19:24:57.112Z,6.65
2023-03-06T19:28:00.609Z,6.47
2023-03-06T19:31:11.813Z,6.29
2023-03-06T19:34:14.712Z,6.18
2023-03-06T19:37:18.325Z,6.18
2023-03-06T19:40:21.346Z,6.14
2023-03-06T19:43:24.472Z,5.91
2023-03-06T19:46:27.576Z,5.83
2023-03-06T19:49:31.162Z,5.80
2023-03-06T19:52:36.712Z,5.78
2023-03-06T19:55:40.192Z,5.72
2023-03-06T19:58:44.210Z,5.71
2023-03-06T20:01:47.379Z,5.82
2023-03-06T20:04:51.547Z,5.96
2023-03-06T20:07:54.725Z,6.01
2023-03-06T20:10:57.902Z,6.01
2023-03-06T20:14:03.265Z,5.98
2023-03-06T20:17:06.335Z,5.80
2023-03-06T20:20:10.451Z,5.80
2023-03-06T20:23:15.624Z,5.76
2023-03-06T20:26:20.711Z,5.69
2023-03-06T20:29:26.642Z,5.57
2023-03-06T20:32:31.596Z,5.46
2023-03-06T20:35:34.731Z,5.37
2023-03-06T20:38:39.134Z,5.43
2023-03-06T20:41:43.167Z,5.35
2023-03-06T20:44:46.228Z,5.25
2023-03-06T20:47:50.965Z,5.16
2023-03-06T20:51:08.607Z,5.18
2023-03-06T20:54:13.803Z,5.16
2023-03-06T20:57:16.810Z,5.07
2023-03-06T21:00:21.145Z,5.05
2023-03-06T21:03:24.690Z,4.95
2023-03-06T21:06:29.062Z,4.93
2023-03-06T21:09:34.606Z,4.94
2023-03-06T21:12:37.428Z,4.91
2023-03-06T21:15:41.785Z,5.02
2023-03-06T21:18:45.385Z,4.95
2023-03-06T21:21:48.451Z,4.97
2023-03-06T21:24:51.554Z,5.06
2023-03-06T21:27:54.595Z,5.07
2023-03-06T21:31:00.848Z,5.16
2023-03-06T21:34:05.223Z,5.15
2023-03-06T21:37:08.818Z,5.32
2023-03-06T21:40:14.189Z,5.29
2023-03-06T21:43:17.809Z,5.24
2023-03-06T21:46:20.591Z,5.26
2023-03-06T21:49:26.248Z,5.22
2023-03-06T21:52:29.656Z,5.28
2023-03-06T21:55:32.385Z,5.29
2023-03-06T21:58:35.744Z,5.28
2023-03-06T22:01:38.726Z,5.33
2023-03-06T22:04:41.730Z,5.31
2023-03-06T22:07:44.898Z,5.21
2023-03-06T22:10:49.213Z,5.18
2023-03-06T22:13:53.580Z,5.14
2023-03-06T22:16:59.170Z,5.13
2023-03-06T22:20:02.202Z,5.15
2023-03-06T22:23:05.410Z,5.09
2023-03-06T22:26:11.307Z,5.06
2023-03-06T22:29:14.031Z,5.08
2023-03-06T22:32:17.049Z,5.13
2023-03-06T22:35:20.078Z,5.28
2023-03-06T22:38:22.884Z,5.24
2023-03-06T22:41:26.983Z,5.31
2023-03-06T22:44:30.105Z,5.38
2023-03-06T22:47:36.438Z,5.44
2023-03-06T22:50:39.266Z,5.51
2023-03-06T22:53:42.438Z,5.61
2023-03-06T22:56:45.337Z,5.62
2023-03-06T22:59:48.124Z,5.51
2023-03-06T23:02:50.894Z,5.41
2023-03-06T23:05:54.163Z,5.44
2023-03-06T23:08:59.797Z,5.46
2023-03-06T23:12:02.512Z,5.55
2023-03-06T23:15:23.780Z,5.50
2023-03-06T23:18:45.313Z,5.63
2023-03-06T23:22:06.751Z,5.66
2023-03-06T23:25:27.950Z,5.76
2023-03-06T23:28:30.984Z,5.73
2023-03-06T23:31:33.959Z,5.75
2023-03-06T23:34:37.073Z,5.66
2023-03-06T23:37:39.859Z,5.54
2023-03-06T23:40:42.705Z,5.42
2023-03-06T23:43:46.822Z,5.45
2023-03-06T23:46:49.611Z,5.46
2023-03-06T23:49:52.336Z,5.31
2023-03-06T23:52:55.545Z,5.36
2023-03-06T23:55:58.486Z,5.42
2023-03-06T23:59:01.399Z,5.40
